Time,TemperatureF,DewpointF,PressureIn,WindDirection,WindDirectionDegrees,WindSpeedMPH,WindSpeedGustMPH,Humidity,HourlyPrecipIn,Conditions,Clouds,dailyrainin,SoftwareType,DateUTC
2013-01-15 00:02:00,20.0,13.0,-100.00,SE,130,16.0,17.0,74,-99.99,,,0.00,,2013-01-15 07:02:00,
2013-01-15 00:12:00,20.0,13.0,-100.00,SE,130,16.0,17.0,74,-99.99,,,0.00,,2013-01-15 07:12:00,
2013-01-15 00:22:00,20.0,13.0,-100.00,SE,130,16.0,17.0,74,-99.99,,,0.00,,2013-01-15 07:22:00,
2013-01-15 00:52:00,24.0,14.0,-100.00,South,185,16.0,17.0,66,-99.99,,,0.00,,2013-01-15 07:52:00,
2013-01-15 01:02:00,24.0,14.0,-100.00,South,185,16.0,17.0,66,-99.99,,,0.00,,2013-01-15 08:02:00,
2013-01-15 01:12:00,24.0,14.0,-100.00,South,185,16.0,17.0,66,-99.99,,,0.00,,2013-01-15 08:12:00,
2013-01-15 01:22:00,24.0,14.0,-100.00,South,185,16.0,17.0,66,-99.99,,,0.00,,2013-01-15 08:22:00,
2013-01-15 01:53:00,23.0,14.0,-100.00,SSW,210,26.0,29.0,67,-99.99,,,0.00,,2013-01-15 08:53:00,
2013-01-15 02:02:00,23.0,14.0,-100.00,SSW,210,26.0,29.0,67,-99.99,,,0.00,,2013-01-15 09:02:00,
2013-01-15 02:12:00,23.0,14.0,-100.00,SSW,210,26.0,29.0,67,-99.99,,,0.00,,2013-01-15 09:12:00,
2013-01-15 02:22:00,23.0,14.0,-100.00,SSW,210,26.0,29.0,67,-99.99,,,0.00,,2013-01-15 09:22:00,
2013-01-15 02:52:00,23.0,14.0,-100.00,SSW,205,25.0,27.0,68,-99.99,,,0.00,,2013-01-15 09:52:00,
2013-01-15 03:02:00,23.0,14.0,-100.00,SSW,205,25.0,27.0,68,-99.99,,,0.00,,2013-01-15 10:02:00,
2013-01-15 03:11:00,23.0,14.0,-100.00,SSW,205,25.0,27.0,68,-99.99,,,0.00,,2013-01-15 10:11:00,
2013-01-15 03:22:00,23.0,14.0,-100.00,SSW,205,25.0,27.0,68,-99.99,,,0.00,,2013-01-15 10:22:00,
2013-01-15 03:52:00,24.0,15.0,-100.00,SSW,205,23.0,27.0,67,-99.99,,,0.00,,2013-01-15 10:52:00,
2013-01-15 04:02:00,24.0,15.0,-100.00,SSW,205,23.0,27.0,67,-99.99,,,0.00,,2013-01-15 11:02:00,
2013-01-15 04:12:00,24.0,15.0,-100.00,SSW,205,23.0,27.0,67,-99.99,,,0.00,,2013-01-15 11:12:00,
2013-01-15 04:22:00,24.0,15.0,-100.00,SSW,205,23.0,27.0,67,-99.99,,,0.00,,2013-01-15 11:22:00,
2013-01-15 04:53:00,25.0,16.0,-100.00,SSW,195,19.0,22.0,67,-99.99,,,0.00,,2013-01-15 11:53:00,
2013-01-15 05:02:00,25.0,16.0,-100.00,SSW,195,19.0,22.0,67,-99.99,,,0.00,,2013-01-15 12:02:00,
2013-01-15 05:12:00,25.0,16.0,-100.00,SSW,195,19.0,22.0,67,-99.99,,,0.00,,2013-01-15 12:12:00,
2013-01-15 05:22:00,25.0,16.0,-100.00,SSW,195,19.0,22.0,67,-99.99,,,0.00,,2013-01-15 12:22:00,
2013-01-15 05:23:00,26.0,16.0,-100.00,SSW,205,19.0,26.0,66,-99.99,,,0.00,,2013-01-15 12:23:00,
2013-01-15 05:53:00,26.0,16.0,-100.00,SSW,205,19.0,26.0,66,-99.99,,,0.00,,2013-01-15 12:53:00,
2013-01-15 06:03:00,26.0,16.0,-100.00,SSW,205,19.0,26.0,66,-99.99,,,0.00,,2013-01-15 13:03:00,
2013-01-15 06:12:00,26.0,16.0,-100.00,SSW,205,19.0,26.0,66,-99.99,,,0.00,,2013-01-15 13:12:00,
2013-01-15 06:23:00,25.0,16.0,-100.00,SSW,205,21.0,22.0,68,-99.99,,,0.00,,2013-01-15 13:23:00,
2013-01-15 06:53:00,25.0,16.0,-100.00,SSW,205,21.0,22.0,68,-99.99,,,0.00,,2013-01-15 13:53:00,
2013-01-15 07:02:00,25.0,16.0,-100.00,SSW,205,21.0,22.0,68,-99.99,,,0.00,,2013-01-15 14:02:00,
2013-01-15 07:12:00,25.0,16.0,-100.00,SSW,205,21.0,22.0,68,-99.99,,,0.00,,2013-01-15 14:12:00,
2013-01-15 07:23:00,24.0,16.0,-100.00,SW,215,31.0,34.0,70,-99.99,,,0.00,,2013-01-15 14:23:00,
2013-01-15 07:53:00,24.0,16.0,-100.00,SW,215,31.0,34.0,70,-99.99,,,0.00,,2013-01-15 14:53:00,
2013-01-15 08:03:00,24.0,16.0,-100.00,SW,215,31.0,34.0,70,-99.99,,,0.00,,2013-01-15 15:03:00,
2013-01-15 08:12:00,24.0,16.0,-100.00,SW,215,31.0,34.0,70,-99.99,,,0.00,,2013-01-15 15:12:00,
2013-01-15 08:53:00,24.0,15.0,-100.00,SW,225,32.0,35.0,69,-99.99,,,0.00,,2013-01-15 15:53:00,
2013-01-15 09:02:00,24.0,15.0,-100.00,SW,225,32.0,35.0,69,-99.99,,,0.00,,2013-01-15 16:02:00,
2013-01-15 09:12:00,24.0,15.0,-100.00,SW,225,32.0,35.0,69,-99.99,,,0.00,,2013-01-15 16:12:00,
2013-01-15 09:22:00,24.0,15.0,-100.00,SW,225,32.0,35.0,69,-99.99,,,0.00,,2013-01-15 16:22:00,
2013-01-15 09:53:00,25.0,16.0,-100.00,SSW,210,26.0,27.0,68,-99.99,,,0.00,,2013-01-15 16:53:00,
2013-01-15 10:03:00,25.0,16.0,-100.00,SSW,210,26.0,27.0,68,-99.99,,,0.00,,2013-01-15 17:03:00,
2013-01-15 10:12:00,25.0,16.0,-100.00,SSW,210,26.0,27.0,68,-99.99,,,0.00,,2013-01-15 17:12:00,
2013-01-15 10:22:00,25.0,16.0,-100.00,SSW,210,26.0,27.0,68,-99.99,,,0.00,,2013-01-15 17:22:00,
2013-01-15 11:53:00,28.0,18.0,-100.00,SW,225,24.0,28.0,65,-99.99,,,0.00,,2013-01-15 18:53:00,
2013-01-15 12:03:00,28.0,18.0,-100.00,SW,225,24.0,28.0,65,-99.99,,,0.00,,2013-01-15 19:03:00,
2013-01-15 12:12:00,28.0,18.0,-100.00,SW,225,24.0,28.0,65,-99.99,,,0.00,,2013-01-15 19:12:00,
2013-01-15 12:22:00,28.0,18.0,-100.00,SW,225,24.0,28.0,65,-99.99,,,0.00,,2013-01-15 19:22:00,
2013-01-15 17:12:00,29.0,19.0,-100.00,SSW,200,24.0,26.0,66,-99.99,,,0.00,,2013-01-16 00:12:00,
2013-01-15 17:22:00,29.0,19.0,-100.00,SSW,200,24.0,26.0,66,-99.99,,,0.00,,2013-01-16 00:22:00,
2013-01-15 17:53:00,29.0,19.0,-100.00,SSW,205,24.0,29.0,65,-99.99,,,0.00,,2013-01-16 00:53:00,
2013-01-15 18:02:00,29.0,19.0,-100.00,SSW,205,24.0,29.0,65,-99.99,,,0.00,,2013-01-16 01:02:00,
2013-01-15 18:12:00,29.0,19.0,-100.00,SSW,205,24.0,29.0,65,-99.99,,,0.00,,2013-01-16 01:12:00,
2013-01-15 18:22:00,29.0,19.0,-100.00,SSW,205,24.0,29.0,65,-99.99,,,0.00,,2013-01-16 01:22:00,
2013-01-15 18:53:00,29.0,19.0,-100.00,SW,220,26.0,28.0,65,-99.99,,,-99.99,,2013-01-16 01:53:00,
2013-01-15 19:02:00,29.0,19.0,-100.00,SW,220,26.0,28.0,65,-99.99,,,-99.99,,2013-01-16 02:02:00,
2013-01-15 19:12:00,29.0,19.0,-100.00,SW,220,26.0,28.0,65,-99.99,,,-99.99,,2013-01-16 02:12:00,
2013-01-15 19:22:00,29.0,19.0,-100.00,SW,220,26.0,28.0,65,-99.99,,,-99.99,,2013-01-16 02:22:00,
2013-01-15 21:52:00,32.0,19.0,-100.00,SSW,200,22.0,24.0,59,-99.99,,,0.00,,2013-01-16 04:52:00,
2013-01-15 22:03:00,32.0,19.0,-100.00,SSW,200,22.0,24.0,59,-99.99,,,0.00,,2013-01-16 05:03:00,
2013-01-15 22:12:00,32.0,19.0,-100.00,SSW,200,22.0,24.0,59,-99.99,,,0.00,,2013-01-16 05:12:00,
2013-01-15 22:22:00,32.0,19.0,-100.00,SSW,200,22.0,24.0,59,-99.99,,,0.00,,2013-01-16 05:22:00,
2013-01-15 22:53:00,32.0,18.0,-100.00,South,190,22.0,23.0,55,-99.99,,,0.00,,2013-01-16 05:53:00,
2013-01-15 23:02:00,32.0,18.0,-100.00,South,190,22.0,23.0,55,-99.99,,,0.00,,2013-01-16 06:02:00,
2013-01-15 23:12:00,32.0,18.0,-100.00,South,190,22.0,23.0,55,-99.99,,,0.00,,2013-01-16 06:12:00,
2013-01-15 23:22:00,32.0,18.0,-100.00,South,190,22.0,23.0,55,-99.99,,,0.00,,2013-01-16 06:22:00,
2013-01-15 23:53:00,34.0,18.0,-100.00,SSW,200,21.0,23.0,52,-99.99,,,0.00,,2013-01-16 06:53:00,